sensor_id;sensor_type;location;lat;lon;timestamp;pressure;altitude;pressure_sealevel;temperature;humidity
39105;BME280;46464;51.154;13.812;2023-04-26T00:00:10;52377.06;;;-146.96;65.23
39105;BME280;46464;51.154;13.812;2023-04-26T00:02:36;52354.69;;;-146.96;65.20
39105;BME280;46464;51.154;13.812;2023-04-26T00:05:04;52370.97;;;-146.96;65.67
39105;BME280;46464;51.154;13.812;2023-04-26T00:07:31;52344.50;;;-146.96;65.70
39105;BME280;46464;51.154;13.812;2023-04-26T00:09:58;52387.22;;;-146.96;66.24
39105;BME280;46464;51.154;13.812;2023-04-26T00:12:24;52379.09;;;-146.96;66.43
39105;BME280;46464;51.154;13.812;2023-04-26T00:14:51;52348.56;;;-146.96;66.29
39105;BME280;46464;51.154;13.812;2023-04-26T00:17:18;52401.47;;;-146.96;66.10
39105;BME280;46464;51.154;13.812;2023-04-26T00:19:44;52387.22;;;-146.96;66.21
39105;BME280;46464;51.154;13.812;2023-04-26T00:22:12;52354.69;;;-146.96;66.38
39105;BME280;46464;51.154;13.812;2023-04-26T00:24:38;52362.81;;;-146.96;66.42
39105;BME280;46464;51.154;13.812;2023-04-26T00:27:05;52377.06;;;-146.96;66.43
39105;BME280;46464;51.154;13.812;2023-04-26T00:29:37;52377.06;;;-146.96;66.49
39105;BME280;46464;51.154;13.812;2023-04-26T00:32:04;52383.16;;;-146.96;66.66
39105;BME280;46464;51.154;13.812;2023-04-26T00:34:31;52427.94;;;-146.96;66.96
39105;BME280;46464;51.154;13.812;2023-04-26T00:36:58;52379.09;;;-146.96;67.34
39105;BME280;46464;51.154;13.812;2023-04-26T00:39:25;52385.19;;;-146.96;67.58
39105;BME280;46464;51.154;13.812;2023-04-26T00:41:52;52387.22;;;-146.96;67.67
39105;BME280;46464;51.154;13.812;2023-04-26T00:44:19;52385.19;;;-146.96;67.66
39105;BME280;46464;51.154;13.812;2023-04-26T00:46:45;52383.16;;;-146.96;67.97
39105;BME280;46464;51.154;13.812;2023-04-26T00:49:15;52401.47;;;-146.96;68.20
39105;BME280;46464;51.154;13.812;2023-04-26T00:51:43;52411.66;;;-146.96;68.27
39105;BME280;46464;51.154;13.812;2023-04-26T00:54:11;52419.78;;;-146.96;68.29
39105;BME280;46464;51.154;13.812;2023-04-26T00:56:38;52397.41;;;-146.96;68.48
39105;BME280;46464;51.154;13.812;2023-04-26T00:59:05;52391.31;;;-146.96;68.83
39105;BME280;46464;51.154;13.812;2023-04-26T01:01:33;52419.78;;;-146.96;69.06
39105;BME280;46464;51.154;13.812;2023-04-26T01:04:01;52391.31;;;-146.96;69.28
39105;BME280;46464;51.154;13.812;2023-04-26T01:06:34;52383.16;;;-146.96;69.70
39105;BME280;46464;51.154;13.812;2023-04-26T01:09:02;52389.28;;;-146.96;69.84
39105;BME280;46464;51.154;13.812;2023-04-26T01:11:30;52434.03;;;-146.96;70.35
39105;BME280;46464;51.154;13.812;2023-04-26T01:13:58;52436.06;;;-146.96;70.60
39105;BME280;46464;51.154;13.812;2023-04-26T01:16:25;52413.69;;;-146.96;71.00
39105;BME280;46464;51.154;13.812;2023-04-26T01:18:53;52364.84;;;-146.96;71.08
39105;BME280;46464;51.154;13.812;2023-04-26T01:21:21;52411.66;;;-146.96;71.48
39105;BME280;46464;51.154;13.812;2023-04-26T01:23:51;52460.50;;;-146.96;71.50
39105;BME280;46464;51.154;13.812;2023-04-26T01:26:18;52423.88;;;-146.96;71.72
39105;BME280;46464;51.154;13.812;2023-04-26T01:28:44;52407.59;;;-146.96;72.12
39105;BME280;46464;51.154;13.812;2023-04-26T01:31:15;52391.31;;;-146.96;72.25
39105;BME280;46464;51.154;13.812;2023-04-26T01:33:41;52429.97;;;-146.96;72.02
39105;BME280;46464;51.154;13.812;2023-04-26T01:36:08;52429.97;;;-146.96;72.39
39105;BME280;46464;51.154;13.812;2023-04-26T01:38:36;52413.69;;;-146.96;72.33
39105;BME280;46464;51.154;13.812;2023-04-26T01:41:03;52409.63;;;-146.96;72.78
39105;BME280;46464;51.154;13.812;2023-04-26T01:43:29;52397.41;;;-146.96;72.78
39105;BME280;46464;51.154;13.812;2023-04-26T01:45:56;52417.75;;;-146.96;72.83
39105;BME280;46464;51.154;13.812;2023-04-26T01:48:22;52444.22;;;-146.96;72.86
39105;BME280;46464;51.154;13.812;2023-04-26T01:50:48;52411.66;;;-146.96;72.61
39105;BME280;46464;51.154;13.812;2023-04-26T01:53:15;52415.72;;;-146.96;72.67
39105;BME280;46464;51.154;13.812;2023-04-26T01:55:41;52393.34;;;-146.96;72.87
39105;BME280;46464;51.154;13.812;2023-04-26T01:58:08;52425.91;;;-146.96;73.02
39105;BME280;46464;51.154;13.812;2023-04-26T02:00:35;52419.78;;;-146.96;72.69
39105;BME280;46464;51.154;13.812;2023-04-26T02:03:01;52436.06;;;-146.96;72.86
39105;BME280;46464;51.154;13.812;2023-04-26T02:05:28;52436.06;;;-146.96;72.68
39105;BME280;46464;51.154;13.812;2023-04-26T02:07:55;52409.63;;;-146.96;72.73
39105;BME280;46464;51.154;13.812;2023-04-26T02:10:21;52444.22;;;-146.96;72.58
39105;BME280;46464;51.154;13.812;2023-04-26T02:12:48;52423.88;;;-146.96;72.72
39105;BME280;46464;51.154;13.812;2023-04-26T02:15:14;52440.13;;;-146.96;72.67
39105;BME280;46464;51.154;13.812;2023-04-26T02:17:41;52423.88;;;-146.96;72.61
39105;BME280;46464;51.154;13.812;2023-04-26T02:20:08;52419.78;;;-146.96;72.47
39105;BME280;46464;51.154;13.812;2023-04-26T02:22:35;52419.78;;;-146.96;72.78
39105;BME280;46464;51.154;13.812;2023-04-26T02:25:02;52421.81;;;-146.96;72.39
39105;BME280;46464;51.154;13.812;2023-04-26T02:27:28;52442.19;;;-146.96;72.37
39105;BME280;46464;51.154;13.812;2023-04-26T02:29:55;52427.94;;;-146.96;72.53
39105;BME280;46464;51.154;13.812;2023-04-26T02:32:21;52403.50;;;-146.96;72.22
39105;BME280;46464;51.154;13.812;2023-04-26T02:34:48;52389.28;;;-146.96;71.86
39105;BME280;46464;51.154;13.812;2023-04-26T02:37:14;52440.13;;;-146.96;71.93
39105;BME280;46464;51.154;13.812;2023-04-26T02:39:41;52401.47;;;-146.96;72.22
39105;BME280;46464;51.154;13.812;2023-04-26T02:42:10;52391.31;;;-146.96;72.53
39105;BME280;46464;51.154;13.812;2023-04-26T02:44:37;52421.81;;;-146.96;72.00
39105;BME280;46464;51.154;13.812;2023-04-26T02:47:05;52434.03;;;-146.96;71.67
39105;BME280;46464;51.154;13.812;2023-04-26T02:49:31;52436.06;;;-146.96;71.88
39105;BME280;46464;51.154;13.812;2023-04-26T02:51:58;52417.75;;;-146.96;71.89
39105;BME280;46464;51.154;13.812;2023-04-26T02:54:24;52405.56;;;-146.96;71.72
39105;BME280;46464;51.154;13.812;2023-04-26T02:56:51;52423.88;;;-146.96;71.36
39105;BME280;46464;51.154;13.812;2023-04-26T02:59:17;52413.69;;;-146.96;71.35
39105;BME280;46464;51.154;13.812;2023-04-26T03:01:44;52434.03;;;-146.96;71.62
39105;BME280;46464;51.154;13.812;2023-04-26T03:04:10;52389.28;;;-146.96;71.73
39105;BME280;46464;51.154;13.812;2023-04-26T03:06:37;52411.66;;;-146.96;71.96
39105;BME280;46464;51.154;13.812;2023-04-26T03:09:03;52438.09;;;-146.96;72.12
39105;BME280;46464;51.154;13.812;2023-04-26T03:11:31;52436.06;;;-146.96;72.23
39105;BME280;46464;51.154;13.812;2023-04-26T03:13:57;52450.31;;;-146.96;71.82
39105;BME280;46464;51.154;13.812;2023-04-26T03:16:26;52405.56;;;-146.96;72.08
39105;BME280;46464;51.154;13.812;2023-04-26T03:18:53;52446.25;;;-146.96;72.31
39105;BME280;46464;51.154;13.812;2023-04-26T03:21:20;52444.22;;;-146.96;72.41
39105;BME280;46464;51.154;13.812;2023-04-26T03:23:46;52409.63;;;-146.96;72.31
39105;BME280;46464;51.154;13.812;2023-04-26T03:26:13;52413.69;;;-146.96;72.33
39105;BME280;46464;51.154;13.812;2023-04-26T03:28:40;52448.28;;;-146.96;72.31
39105;BME280;46464;51.154;13.812;2023-04-26T03:31:06;52464.56;;;-146.96;72.55
39105;BME280;46464;51.154;13.812;2023-04-26T03:33:33;52444.22;;;-146.96;72.47
39105;BME280;46464;51.154;13.812;2023-04-26T03:35:59;52458.44;;;-146.96;72.56
39105;BME280;46464;51.154;13.812;2023-04-26T03:38:26;52462.53;;;-146.96;72.68
39105;BME280;46464;51.154;13.812;2023-04-26T03:40:53;52407.59;;;-146.96;72.89
39105;BME280;46464;51.154;13.812;2023-04-26T03:43:19;52476.75;;;-146.96;72.78
39105;BME280;46464;51.154;13.812;2023-04-26T03:45:47;52464.56;;;-146.96;72.82
39105;BME280;46464;51.154;13.812;2023-04-26T03:48:14;52434.03;;;-146.96;72.97
39105;BME280;46464;51.154;13.812;2023-04-26T03:50:42;52419.78;;;-146.96;73.28
39105;BME280;46464;51.154;13.812;2023-04-26T03:53:10;52429.97;;;-146.96;73.25
39105;BME280;46464;51.154;13.812;2023-04-26T03:55:37;52440.13;;;-146.96;73.42
39105;BME280;46464;51.154;13.812;2023-04-26T03:58:03;52413.69;;;-146.96;73.53
39105;BME280;46464;51.154;13.812;2023-04-26T04:00:37;52458.44;;;-146.96;73.33
39105;BME280;46464;51.154;13.812;2023-04-26T04:03:05;52462.53;;;-146.96;73.58
39105;BME280;46464;51.154;13.812;2023-04-26T04:05:32;52460.50;;;-146.96;73.35
39105;BME280;46464;51.154;13.812;2023-04-26T04:07:58;52462.53;;;-146.96;73.41
39105;BME280;46464;51.154;13.812;2023-04-26T04:10:25;52425.91;;;-146.96;73.46
39105;BME280;46464;51.154;13.812;2023-04-26T04:12:51;52478.81;;;-146.96;73.55
39105;BME280;46464;51.154;13.812;2023-04-26T04:15:18;52474.72;;;-146.96;73.32
39105;BME280;46464;51.154;13.812;2023-04-26T04:17:45;52491.00;;;-146.96;73.25
39105;BME280;46464;51.154;13.812;2023-04-26T04:20:12;52468.63;;;-146.96;73.48
39105;BME280;46464;51.154;13.812;2023-04-26T04:22:39;52466.59;;;-146.96;73.22
39105;BME280;46464;51.154;13.812;2023-04-26T04:25:06;52462.53;;;-146.96;72.84
39105;BME280;46464;51.154;13.812;2023-04-26T04:27:34;52468.63;;;-146.96;73.10
39105;BME280;46464;51.154;13.812;2023-04-26T04:30:03;52458.44;;;-146.96;72.94
39105;BME280;46464;51.154;13.812;2023-04-26T04:32:32;52417.75;;;-146.96;72.77
39105;BME280;46464;51.154;13.812;2023-04-26T04:34:59;52495.06;;;-146.96;72.97
39105;BME280;46464;51.154;13.812;2023-04-26T04:37:26;52480.84;;;-146.96;72.89
39105;BME280;46464;51.154;13.812;2023-04-26T04:39:54;52474.72;;;-146.96;72.81
39105;BME280;46464;51.154;13.812;2023-04-26T04:42:21;52466.59;;;-146.96;72.66
39105;BME280;46464;51.154;13.812;2023-04-26T04:44:47;52434.03;;;-146.96;72.96
39105;BME280;46464;51.154;13.812;2023-04-26T04:47:15;52444.22;;;-146.96;72.72
39105;BME280;46464;51.154;13.812;2023-04-26T04:49:43;52474.72;;;-146.96;72.39
39105;BME280;46464;51.154;13.812;2023-04-26T04:52:09;52438.09;;;-146.96;71.59
39105;BME280;46464;51.154;13.812;2023-04-26T04:54:36;52446.25;;;-146.96;71.79
39105;BME280;46464;51.154;13.812;2023-04-26T04:57:02;52442.19;;;-146.96;71.69
39105;BME280;46464;51.154;13.812;2023-04-26T04:59:29;52452.34;;;-146.96;71.67
39105;BME280;46464;51.154;13.812;2023-04-26T05:01:56;52411.66;;;-146.96;72.25
39105;BME280;46464;51.154;13.812;2023-04-26T05:04:22;52448.28;;;-146.96;71.58
39105;BME280;46464;51.154;13.812;2023-04-26T05:06:49;52427.94;;;-146.96;71.58
39105;BME280;46464;51.154;13.812;2023-04-26T05:09:16;52464.56;;;-146.96;71.72
39105;BME280;46464;51.154;13.812;2023-04-26T05:11:42;52440.13;;;-146.96;71.78
39105;BME280;46464;51.154;13.812;2023-04-26T05:14:10;52436.06;;;-146.96;71.53
39105;BME280;46464;51.154;13.812;2023-04-26T05:16:36;52450.31;;;-146.96;71.52
39105;BME280;46464;51.154;13.812;2023-04-26T05:19:03;52454.38;;;-146.96;71.62
39105;BME280;46464;51.154;13.812;2023-04-26T05:21:33;52450.31;;;-146.96;70.92
39105;BME280;46464;51.154;13.812;2023-04-26T05:24:00;52407.59;;;-146.96;69.69
39105;BME280;46464;51.154;13.812;2023-04-26T05:26:27;52362.81;;;-146.96;68.09
39105;BME280;46464;51.154;13.812;2023-04-26T05:28:53;52354.69;;;-146.96;65.78
39105;BME280;46464;51.154;13.812;2023-04-26T05:31:20;52377.06;;;-146.96;63.77
39105;BME280;46464;51.154;13.812;2023-04-26T05:33:46;52358.75;;;-146.96;64.68
39105;BME280;46464;51.154;13.812;2023-04-26T05:36:13;52354.69;;;-146.96;65.64
39105;BME280;46464;51.154;13.812;2023-04-26T05:38:39;52381.13;;;-146.96;64.77
39105;BME280;46464;51.154;13.812;2023-04-26T05:41:06;52381.13;;;-146.96;63.33
39105;BME280;46464;51.154;13.812;2023-04-26T05:43:33;52379.09;;;-146.96;62.76
39105;BME280;46464;51.154;13.812;2023-04-26T05:46:00;52360.78;;;-146.96;61.72
39105;BME280;46464;51.154;13.812;2023-04-26T05:48:27;52368.94;;;-146.96;61.39
39105;BME280;46464;51.154;13.812;2023-04-26T05:50:55;52295.66;;;-146.96;59.72
39105;BME280;46464;51.154;13.812;2023-04-26T05:53:21;52326.19;;;-146.96;59.05
39105;BME280;46464;51.154;13.812;2023-04-26T05:55:48;52326.19;;;-146.96;59.75
39105;BME280;46464;51.154;13.812;2023-04-26T05:58:14;52338.41;;;-146.96;59.69
39105;BME280;46464;51.154;13.812;2023-04-26T06:00:41;52324.16;;;-146.96;58.82
39105;BME280;46464;51.154;13.812;2023-04-26T06:03:08;52350.59;;;-146.96;59.01
39105;BME280;46464;51.154;13.812;2023-04-26T06:05:35;52405.56;;;-146.96;59.77
39105;BME280;46464;51.154;13.812;2023-04-26T06:08:03;52389.28;;;-146.96;60.89
39105;BME280;46464;51.154;13.812;2023-04-26T06:10:30;52346.53;;;-146.96;62.80
39105;BME280;46464;51.154;13.812;2023-04-26T06:12:57;52373.00;;;-146.96;63.54
39105;BME280;46464;51.154;13.812;2023-04-26T06:15:24;52338.41;;;-146.96;61.69
39105;BME280;46464;51.154;13.812;2023-04-26T06:17:50;52362.81;;;-146.96;61.31
39105;BME280;46464;51.154;13.812;2023-04-26T06:20:17;52328.22;;;-146.96;60.97
39105;BME280;46464;51.154;13.812;2023-04-26T06:22:43;52352.66;;;-146.96;60.61
39105;BME280;46464;51.154;13.812;2023-04-26T06:25:10;52326.19;;;-146.96;60.44
39105;BME280;46464;51.154;13.812;2023-04-26T06:27:36;52330.25;;;-146.96;59.90
39105;BME280;46464;51.154;13.812;2023-04-26T06:30:05;52364.84;;;-146.96;60.40
39105;BME280;46464;51.154;13.812;2023-04-26T06:32:33;52350.59;;;-146.96;61.70
39105;BME280;46464;51.154;13.812;2023-04-26T06:34:59;52379.09;;;-146.96;61.44
39105;BME280;46464;51.154;13.812;2023-04-26T06:37:27;52342.47;;;-146.96;60.93
39105;BME280;46464;51.154;13.812;2023-04-26T06:39:53;52373.00;;;-146.96;60.96
39105;BME280;46464;51.154;13.812;2023-04-26T06:42:19;52364.84;;;-146.96;61.42
39105;BME280;46464;51.154;13.812;2023-04-26T06:44:46;52373.00;;;-146.96;62.84
39105;BME280;46464;51.154;13.812;2023-04-26T06:47:12;52373.00;;;-146.96;63.10
39105;BME280;46464;51.154;13.812;2023-04-26T06:49:39;52354.69;;;-146.96;63.07
39105;BME280;46464;51.154;13.812;2023-04-26T06:52:06;52360.78;;;-146.96;62.94
39105;BME280;46464;51.154;13.812;2023-04-26T06:54:34;52383.16;;;-146.96;63.15
39105;BME280;46464;51.154;13.812;2023-04-26T06:57:15;52358.75;;;-146.96;63.50
39105;BME280;46464;51.154;13.812;2023-04-26T06:59:41;52330.25;;;-146.96;62.40
39105;BME280;46464;51.154;13.812;2023-04-26T07:02:08;52342.47;;;-146.96;62.74
39105;BME280;46464;51.154;13.812;2023-04-26T07:04:34;52387.22;;;-146.96;62.75
39105;BME280;46464;51.154;13.812;2023-04-26T07:07:02;52346.53;;;-146.96;62.37
39105;BME280;46464;51.154;13.812;2023-04-26T07:09:28;52340.44;;;-146.96;61.66
39105;BME280;46464;51.154;13.812;2023-04-26T07:11:55;52316.03;;;-146.96;61.16
39105;BME280;46464;51.154;13.812;2023-04-26T07:14:22;52340.44;;;-146.96;60.89
39105;BME280;46464;51.154;13.812;2023-04-26T07:16:49;52375.03;;;-146.96;61.39
39105;BME280;46464;51.154;13.812;2023-04-26T07:19:15;52364.84;;;-146.96;62.06
39105;BME280;46464;51.154;13.812;2023-04-26T07:21:42;52391.31;;;-146.96;61.90
39105;BME280;46464;51.154;13.812;2023-04-26T07:24:08;52318.06;;;-146.96;60.85
39105;BME280;46464;51.154;13.812;2023-04-26T07:26:35;52326.19;;;-146.96;59.03
39105;BME280;46464;51.154;13.812;2023-04-26T07:29:02;52336.38;;;-146.96;58.79
39105;BME280;46464;51.154;13.812;2023-04-26T07:31:30;52346.53;;;-146.96;59.21
39105;BME280;46464;51.154;13.812;2023-04-26T07:33:59;52354.69;;;-146.96;59.86
39105;BME280;46464;51.154;13.812;2023-04-26T07:36:26;52344.50;;;-146.96;58.91
39105;BME280;46464;51.154;13.812;2023-04-26T07:38:53;52316.03;;;-146.96;57.04
39105;BME280;46464;51.154;13.812;2023-04-26T07:41:19;52307.88;;;-146.96;57.27
39105;BME280;46464;51.154;13.812;2023-04-26T07:43:46;52344.50;;;-146.96;57.15
39105;BME280;46464;51.154;13.812;2023-04-26T07:46:12;52311.94;;;-146.96;57.42
39105;BME280;46464;51.154;13.812;2023-04-26T07:48:39;52313.97;;;-146.96;57.01
39105;BME280;46464;51.154;13.812;2023-04-26T07:51:07;52318.06;;;-146.96;56.23
39105;BME280;46464;51.154;13.812;2023-04-26T07:53:34;52311.94;;;-146.96;56.59
39105;BME280;46464;51.154;13.812;2023-04-26T07:56:03;52334.34;;;-146.96;57.34
39105;BME280;46464;51.154;13.812;2023-04-26T07:58:30;52318.06;;;-146.96;57.80
39105;BME280;46464;51.154;13.812;2023-04-26T08:00:59;52344.50;;;-146.96;57.06
39105;BME280;46464;51.154;13.812;2023-04-26T08:03:25;52318.06;;;-146.96;56.47
39105;BME280;46464;51.154;13.812;2023-04-26T08:05:53;52342.47;;;-146.96;56.06
39105;BME280;46464;51.154;13.812;2023-04-26T08:08:21;52311.94;;;-146.96;54.77
39105;BME280;46464;51.154;13.812;2023-04-26T08:10:48;52281.44;;;-146.96;53.58
39105;BME280;46464;51.154;13.812;2023-04-26T08:13:14;52336.38;;;-146.96;53.20
39105;BME280;46464;51.154;13.812;2023-04-26T08:15:41;52271.25;;;-146.96;53.88
39105;BME280;46464;51.154;13.812;2023-04-26T08:18:07;52322.13;;;-146.96;52.79
39105;BME280;46464;51.154;13.812;2023-04-26T08:20:34;52336.38;;;-146.96;53.34
39105;BME280;46464;51.154;13.812;2023-04-26T08:23:00;52342.47;;;-146.96;52.90
39105;BME280;46464;51.154;13.812;2023-04-26T08:25:27;52275.31;;;-146.96;52.96
39105;BME280;46464;51.154;13.812;2023-04-26T08:27:54;52293.63;;;-146.96;50.80
39105;BME280;46464;51.154;13.812;2023-04-26T08:30:20;52289.56;;;-146.96;50.90
39105;BME280;46464;51.154;13.812;2023-04-26T08:32:47;52303.81;;;-146.96;53.05
39105;BME280;46464;51.154;13.812;2023-04-26T08:35:14;52295.66;;;-146.96;53.22
39105;BME280;46464;51.154;13.812;2023-04-26T08:37:40;52277.34;;;-146.96;52.00
39105;BME280;46464;51.154;13.812;2023-04-26T08:40:07;52303.81;;;-146.96;51.94
39105;BME280;46464;51.154;13.812;2023-04-26T08:42:41;52257.00;;;-146.96;49.63
39105;BME280;46464;51.154;13.812;2023-04-26T08:45:09;52254.97;;;-146.96;49.91
39105;BME280;46464;51.154;13.812;2023-04-26T08:47:45;52291.59;;;-146.96;48.67
39105;BME280;46464;51.154;13.812;2023-04-26T08:50:14;52250.91;;;-146.96;48.42
39105;BME280;46464;51.154;13.812;2023-04-26T08:52:42;52257.00;;;-146.96;49.63
39105;BME280;46464;51.154;13.812;2023-04-26T08:55:09;52279.41;;;-146.96;49.90
39105;BME280;46464;51.154;13.812;2023-04-26T08:57:38;52261.09;;;-146.96;50.18
39105;BME280;46464;51.154;13.812;2023-04-26T09:00:06;52257.00;;;-146.96;47.71
39105;BME280;46464;51.154;13.812;2023-04-26T09:02:39;52254.97;;;-146.96;47.37
39105;BME280;46464;51.154;13.812;2023-04-26T09:05:08;52267.19;;;-146.96;47.99
39105;BME280;46464;51.154;13.812;2023-04-26T09:07:43;52261.09;;;-146.96;49.59
39105;BME280;46464;51.154;13.812;2023-04-26T09:10:10;52226.50;;;-146.96;48.99
39105;BME280;46464;51.154;13.812;2023-04-26T09:12:38;52287.53;;;-146.96;47.64
39105;BME280;46464;51.154;13.812;2023-04-26T09:15:05;52244.81;;;-146.96;47.45
39105;BME280;46464;51.154;13.812;2023-04-26T09:17:38;52289.56;;;-146.96;49.69
39105;BME280;46464;51.154;13.812;2023-04-26T09:20:27;52273.28;;;-146.96;48.79
39105;BME280;46464;51.154;13.812;2023-04-26T09:23:05;52238.69;;;-146.96;48.41
39105;BME280;46464;51.154;13.812;2023-04-26T09:25:32;52287.53;;;-146.96;45.88
39105;BME280;46464;51.154;13.812;2023-04-26T09:27:59;52244.81;;;-146.96;45.93
39105;BME280;46464;51.154;13.812;2023-04-26T09:30:27;52261.09;;;-146.96;46.44
39105;BME280;46464;51.154;13.812;2023-04-26T09:33:01;52244.81;;;-146.96;46.14
39105;BME280;46464;51.154;13.812;2023-04-26T09:35:35;52202.06;;;-146.96;46.99
39105;BME280;46464;51.154;13.812;2023-04-26T09:38:04;52267.19;;;-146.96;47.90
39105;BME280;46464;51.154;13.812;2023-04-26T09:40:49;52303.81;;;-146.96;49.20
39105;BME280;46464;51.154;13.812;2023-04-26T09:43:20;52257.00;;;-146.96;47.04
39105;BME280;46464;51.154;13.812;2023-04-26T09:45:55;52250.91;;;-146.96;45.68
39105;BME280;46464;51.154;13.812;2023-04-26T09:48:30;52208.19;;;-146.96;43.33
39105;BME280;46464;51.154;13.812;2023-04-26T09:50:59;52309.91;;;-146.96;44.51
39105;BME280;46464;51.154;13.812;2023-04-26T09:53:46;52261.09;;;-146.96;45.96
39105;BME280;46464;51.154;13.812;2023-04-26T09:56:14;52283.47;;;-146.96;45.50
39105;BME280;46464;51.154;13.812;2023-04-26T10:01:18;52269.22;;;-146.96;43.12
39105;BME280;46464;51.154;13.812;2023-04-26T10:03:45;52244.81;;;-146.96;42.72
39105;BME280;46464;51.154;13.812;2023-04-26T10:06:12;52232.59;;;-146.96;43.29
39105;BME280;46464;51.154;13.812;2023-04-26T10:08:39;52157.31;;;-146.96;42.03
39105;BME280;46464;51.154;13.812;2023-04-26T10:11:06;52198.00;;;-146.96;41.86
39105;BME280;46464;51.154;13.812;2023-04-26T10:13:39;52240.75;;;-146.96;42.83
39105;BME280;46464;51.154;13.812;2023-04-26T10:16:08;52275.31;;;-146.96;43.50
39105;BME280;46464;51.154;13.812;2023-04-26T10:18:35;52238.69;;;-146.96;44.25
39105;BME280;46464;51.154;13.812;2023-04-26T10:21:06;52248.88;;;-146.96;43.99
39105;BME280;46464;51.154;13.812;2023-04-26T10:23:33;52293.63;;;-146.96;43.57
39105;BME280;46464;51.154;13.812;2023-04-26T10:26:00;52248.88;;;-146.96;45.26
39105;BME280;46464;51.154;13.812;2023-04-26T10:31:05;52246.84;;;-146.96;46.37
39105;BME280;46464;51.154;13.812;2023-04-26T10:33:33;52252.94;;;-146.96;46.65
39105;BME280;46464;51.154;13.812;2023-04-26T10:38:35;52236.66;;;-146.96;45.00
39105;BME280;46464;51.154;13.812;2023-04-26T10:41:37;52206.16;;;-146.96;44.98
39105;BME280;46464;51.154;13.812;2023-04-26T10:44:43;52216.31;;;-146.96;45.19
39105;BME280;46464;51.154;13.812;2023-04-26T10:47:30;52246.84;;;-146.96;44.13
39105;BME280;46464;51.154;13.812;2023-04-26T10:50:04;52240.75;;;-146.96;43.61
39105;BME280;46464;51.154;13.812;2023-04-26T10:52:31;52222.41;;;-146.96;44.42
39105;BME280;46464;51.154;13.812;2023-04-26T10:54:59;52281.44;;;-146.96;45.30
39105;BME280;46464;51.154;13.812;2023-04-26T10:57:58;52234.63;;;-146.96;45.14
39105;BME280;46464;51.154;13.812;2023-04-26T11:00:26;52252.94;;;-146.96;44.18
39105;BME280;46464;51.154;13.812;2023-04-26T11:03:05;52246.84;;;-146.96;43.54
39105;BME280;46464;51.154;13.812;2023-04-26T11:05:36;52210.22;;;-146.96;41.80
39105;BME280;46464;51.154;13.812;2023-04-26T11:08:07;52222.41;;;-146.96;42.95
39105;BME280;46464;51.154;13.812;2023-04-26T11:10:38;52234.63;;;-146.96;42.81
39105;BME280;46464;51.154;13.812;2023-04-26T11:13:04;52193.94;;;-146.96;43.18
39105;BME280;46464;51.154;13.812;2023-04-26T11:15:31;52224.47;;;-146.96;45.07
39105;BME280;46464;51.154;13.812;2023-04-26T11:18:01;52246.84;;;-146.96;45.20
39105;BME280;46464;51.154;13.812;2023-04-26T11:20:29;52212.25;;;-146.96;44.28
39105;BME280;46464;51.154;13.812;2023-04-26T11:22:57;52234.63;;;-146.96;44.48
39105;BME280;46464;51.154;13.812;2023-04-26T11:25:27;52232.59;;;-146.96;44.22
39105;BME280;46464;51.154;13.812;2023-04-26T11:28:01;52222.41;;;-146.96;43.73
39105;BME280;46464;51.154;13.812;2023-04-26T11:30:32;52232.59;;;-146.96;42.93
39105;BME280;46464;51.154;13.812;2023-04-26T11:32:59;52224.47;;;-146.96;42.81
39105;BME280;46464;51.154;13.812;2023-04-26T11:35:26;52228.53;;;-146.96;42.56
39105;BME280;46464;51.154;13.812;2023-04-26T11:37:57;52248.88;;;-146.96;44.15
39105;BME280;46464;51.154;13.812;2023-04-26T11:40:32;52230.56;;;-146.96;45.30
39105;BME280;46464;51.154;13.812;2023-04-26T11:43:02;52195.97;;;-146.96;46.90
39105;BME280;46464;51.154;13.812;2023-04-26T11:45:33;52185.81;;;-146.96;44.50
39105;BME280;46464;51.154;13.812;2023-04-26T11:48:02;52200.03;;;-146.96;44.01
39105;BME280;46464;51.154;13.812;2023-04-26T11:50:36;52193.94;;;-146.96;45.66
39105;BME280;46464;51.154;13.812;2023-04-26T11:53:05;52189.88;;;-146.96;44.94
39105;BME280;46464;51.154;13.812;2023-04-26T11:55:33;52187.84;;;-146.96;44.70
39105;BME280;46464;51.154;13.812;2023-04-26T11:58:08;52165.44;;;-146.96;45.94
39105;BME280;46464;51.154;13.812;2023-04-26T12:00:35;52212.25;;;-146.96;44.86
39105;BME280;46464;51.154;13.812;2023-04-26T12:03:07;52257.00;;;-146.96;45.22
39105;BME280;46464;51.154;13.812;2023-04-26T12:05:37;52220.38;;;-146.96;44.32
39105;BME280;46464;51.154;13.812;2023-04-26T12:08:05;52195.97;;;-146.96;45.33
39105;BME280;46464;51.154;13.812;2023-04-26T12:10:34;52220.38;;;-146.96;44.75
39105;BME280;46464;51.154;13.812;2023-04-26T12:13:01;52259.03;;;-146.96;44.62
39105;BME280;46464;51.154;13.812;2023-04-26T12:15:30;52208.19;;;-146.96;44.29
39105;BME280;46464;51.154;13.812;2023-04-26T12:17:59;52222.41;;;-146.96;43.81
39105;BME280;46464;51.154;13.812;2023-04-26T12:20:28;52210.22;;;-146.96;44.71
39105;BME280;46464;51.154;13.812;2023-04-26T12:23:02;52220.38;;;-146.96;44.16
39105;BME280;46464;51.154;13.812;2023-04-26T12:25:30;52206.16;;;-146.96;43.73
39105;BME280;46464;51.154;13.812;2023-04-26T12:27:56;52177.66;;;-146.96;44.13
39105;BME280;46464;51.154;13.812;2023-04-26T12:30:24;52216.31;;;-146.96;43.51
39105;BME280;46464;51.154;13.812;2023-04-26T12:32:52;52216.31;;;-146.96;44.49
39105;BME280;46464;51.154;13.812;2023-04-26T12:35:25;52181.72;;;-146.96;44.63
39105;BME280;46464;51.154;13.812;2023-04-26T12:37:52;52206.16;;;-146.96;44.48
39105;BME280;46464;51.154;13.812;2023-04-26T12:40:19;52189.88;;;-146.96;44.15
39105;BME280;46464;51.154;13.812;2023-04-26T12:42:46;52206.16;;;-146.96;44.82